createdAt,value
2023-02-19T00:01:18.268Z,78.29
2023-02-19T00:03:50.873Z,78.20
2023-02-19T00:06:19.078Z,78.28
2023-02-19T00:08:46.258Z,78.57
2023-02-19T00:11:50.508Z,77.38
2023-02-19T00:14:20.917Z,77.58
2023-02-19T00:16:48.756Z,78.19
2023-02-19T00:19:17.981Z,77.81
2023-02-19T00:21:45.045Z,77.07
2023-02-19T00:24:14.575Z,77.61
2023-02-19T00:26:43.033Z,77.86
2023-02-19T00:29:14.268Z,77.30
2023-02-19T00:32:07.563Z,77.63
2023-02-19T00:34:34.536Z,77.83
2023-02-19T00:37:01.660Z,77.61
2023-02-19T00:39:28.710Z,77.58
2023-02-19T00:41:55.585Z,78.32
2023-02-19T00:44:22.686Z,77.69
2023-02-19T00:46:49.657Z,77.84
2023-02-19T00:49:20.113Z,79.31
2023-02-19T00:51:48.720Z,78.59
2023-02-19T00:54:16.279Z,78.33
2023-02-19T00:56:43.240Z,78.72
2023-02-19T00:59:10.361Z,77.79
2023-02-19T01:01:38.961Z,78.86
2023-02-19T01:04:06.873Z,78.17
2023-02-19T01:06:35.374Z,78.38
2023-02-19T01:09:03.886Z,78.14
2023-02-19T01:11:30.862Z,78.02
2023-02-19T01:14:00.412Z,78.34
2023-02-19T01:16:31.121Z,79.01
2023-02-19T01:18:59.216Z,78.71
2023-02-19T01:21:28.209Z,79.53
2023-02-19T01:23:55.558Z,78.78
2023-02-19T01:26:26.810Z,79.09
2023-02-19T01:28:53.823Z,79.60
2023-02-19T01:31:24.231Z,79.36
2023-02-19T01:33:54.875Z,80.08
2023-02-19T01:36:22.116Z,79.16
2023-02-19T01:38:49.909Z,79.67
2023-02-19T01:41:21.280Z,78.94
2023-02-19T01:44:08.204Z,78.61
2023-02-19T01:46:41.282Z,79.60
2023-02-19T01:49:10.096Z,79.31
2023-02-19T01:51:44.419Z,79.53
2023-02-19T01:54:14.159Z,79.43
2023-02-19T01:56:44.579Z,79.35
2023-02-19T01:59:12.680Z,79.36
2023-02-19T02:01:41.012Z,79.71
2023-02-19T02:04:11.185Z,79.64
2023-02-19T02:06:51.560Z,79.17
2023-02-19T02:09:45.119Z,78.68
2023-02-19T02:12:12.974Z,78.88
2023-02-19T02:14:44.122Z,79.14
2023-02-19T02:17:34.250Z,79.72
2023-02-19T02:20:13.438Z,79.63
2023-02-19T02:22:55.809Z,79.77
2023-02-19T02:25:55.679Z,80.44
2023-02-19T02:28:55.285Z,80.40
2023-02-19T02:31:50.042Z,80.40
2023-02-19T02:34:49.546Z,80.19
2023-02-19T02:37:16.922Z,79.86
2023-02-19T02:39:46.367Z,80.04
2023-02-19T02:42:29.098Z,80.48
2023-02-19T02:45:38.102Z,79.79
2023-02-19T02:48:47.193Z,80.49
2023-02-19T02:51:28.239Z,80.45
2023-02-19T02:54:35.102Z,79.63
2023-02-19T02:57:09.413Z,79.66
2023-02-19T02:59:43.378Z,79.72
2023-02-19T03:02:19.265Z,79.35
2023-02-19T03:05:14.793Z,80.07
2023-02-19T03:08:00.860Z,79.38
2023-02-19T03:10:58.840Z,79.37
2023-02-19T03:13:49.498Z,80.18
2023-02-19T03:16:53.820Z,80.96
2023-02-19T03:19:24.853Z,81.51
2023-02-19T03:22:02.080Z,81.78
2023-02-19T03:24:55.309Z,82.37
2023-02-19T03:27:27.296Z,82.11
2023-02-19T03:29:58.762Z,82.40
2023-02-19T03:32:29.663Z,82.92
2023-02-19T03:35:02.098Z,81.77
2023-02-19T03:37:44.447Z,82.21
2023-02-19T03:40:12.131Z,82.33
2023-02-19T03:43:01.982Z,82.44
2023-02-19T03:46:02.998Z,83.06
2023-02-19T03:48:51.588Z,82.48
2023-02-19T03:51:25.106Z,83.06
2023-02-19T03:54:16.567Z,82.00
2023-02-19T03:56:59.216Z,81.21
2023-02-19T03:59:43.429Z,81.39
2023-02-19T04:02:24.611Z,80.41
2023-02-19T04:05:02.595Z,80.77
2023-02-19T04:07:35.394Z,80.91
2023-02-19T04:10:03.742Z,80.18
2023-02-19T04:12:32.421Z,80.53
2023-02-19T04:15:07.494Z,81.15
2023-02-19T04:17:37.645Z,81.08
2023-02-19T04:20:08.903Z,81.43
2023-02-19T04:22:37.594Z,81.35
2023-02-19T04:25:04.989Z,82.32
2023-02-19T04:27:33.004Z,82.04
2023-02-19T04:30:00.148Z,82.05
2023-02-19T04:32:27.200Z,82.15
2023-02-19T04:34:54.463Z,82.34
2023-02-19T04:37:21.418Z,81.94
2023-02-19T04:39:48.390Z,81.85
2023-02-19T04:42:15.297Z,83.24
2023-02-19T04:44:42.173Z,82.16
2023-02-19T04:47:09.273Z,82.87
2023-02-19T04:49:36.134Z,81.69
2023-02-19T04:52:03.139Z,81.69
2023-02-19T04:54:30.084Z,81.78
2023-02-19T04:56:57.671Z,82.51
2023-02-19T04:59:24.658Z,82.80
2023-02-19T05:01:51.791Z,82.55
2023-02-19T05:04:19.023Z,82.24
2023-02-19T05:06:46.109Z,81.33
2023-02-19T05:09:12.987Z,82.27
2023-02-19T05:11:39.968Z,82.78
2023-02-19T05:14:07.080Z,82.36
2023-02-19T05:16:34.013Z,81.67
2023-02-19T05:19:01.138Z,82.50
2023-02-19T05:21:28.190Z,82.43
2023-02-19T05:23:55.029Z,84.02
2023-02-19T05:26:23.590Z,82.43
2023-02-19T05:28:52.916Z,83.08
2023-02-19T05:31:21.477Z,82.93
2023-02-19T05:33:51.365Z,82.72
2023-02-19T05:36:20.378Z,81.50
2023-02-19T05:38:48.105Z,82.02
2023-02-19T05:41:20.314Z,81.89
2023-02-19T05:43:48.545Z,81.74
2023-02-19T05:46:18.284Z,81.52
2023-02-19T05:48:45.785Z,80.20
2023-02-19T05:51:15.421Z,80.29
2023-02-19T05:53:43.462Z,81.19
2023-02-19T05:56:31.892Z,79.90
2023-02-19T05:59:00.120Z,81.15
2023-02-19T06:01:28.849Z,80.99
2023-02-19T06:03:57.613Z,81.08
2023-02-19T06:06:26.381Z,80.48
2023-02-19T06:08:53.705Z,80.27
2023-02-19T06:11:20.796Z,80.24
2023-02-19T06:13:49.516Z,80.21
2023-02-19T06:16:22.186Z,79.64
2023-02-19T06:18:49.830Z,79.97
2023-02-19T06:21:17.503Z,80.09
2023-02-19T06:23:45.400Z,79.88
2023-02-19T06:26:13.727Z,79.83
2023-02-19T06:28:43.282Z,79.08
2023-02-19T06:31:12.002Z,79.16
2023-02-19T06:33:43.318Z,78.40
2023-02-19T06:36:16.687Z,78.49
2023-02-19T06:38:44.372Z,77.51
2023-02-19T06:41:12.844Z,77.75
2023-02-19T06:43:40.459Z,77.28
2023-02-19T06:46:08.308Z,76.56
2023-02-19T06:48:35.818Z,77.26
2023-02-19T06:51:03.688Z,76.77
2023-02-19T06:53:30.764Z,77.19
2023-02-19T06:56:03.316Z,75.19
2023-02-19T06:58:30.587Z,74.88
2023-02-19T07:00:57.698Z,75.11
2023-02-19T07:03:26.392Z,75.68
2023-02-19T07:05:53.608Z,74.87
2023-02-19T07:08:21.001Z,75.62
2023-02-19T07:10:58.177Z,75.28
2023-02-19T07:13:27.044Z,75.72
2023-02-19T07:16:02.097Z,76.32
2023-02-19T07:18:30.650Z,75.37
2023-02-19T07:21:09.607Z,75.26
2023-02-19T07:23:37.212Z,75.35
2023-02-19T07:26:05.335Z,77.87
2023-02-19T07:28:32.350Z,76.52
2023-02-19T07:31:04.169Z,77.22
2023-02-19T07:33:31.179Z,76.32
2023-02-19T07:35:58.293Z,77.33
2023-02-19T07:38:26.299Z,78.65
2023-02-19T07:40:58.314Z,78.88
2023-02-19T07:43:28.047Z,77.86
2023-02-19T07:45:55.465Z,76.68
2023-02-19T07:48:23.029Z,77.71
2023-02-19T07:50:59.897Z,76.07
2023-02-19T07:53:28.158Z,75.95
2023-02-19T07:56:00.698Z,76.64
2023-02-19T07:58:28.061Z,75.45
2023-02-19T08:00:55.400Z,75.17
2023-02-19T08:03:22.743Z,75.71
2023-02-19T08:05:51.522Z,74.58
2023-02-19T08:08:18.570Z,74.78
2023-02-19T08:11:04.311Z,73.70
2023-02-19T08:13:32.050Z,73.71
2023-02-19T08:16:26.892Z,73.07
2023-02-19T08:19:00.464Z,73.21
2023-02-19T08:21:27.504Z,72.25
2023-02-19T08:23:54.456Z,73.55
2023-02-19T08:26:21.555Z,72.38
2023-02-19T08:28:48.802Z,72.58
2023-02-19T08:31:16.077Z,71.29
2023-02-19T08:33:43.132Z,71.46
2023-02-19T08:36:11.357Z,71.54
2023-02-19T08:38:38.687Z,70.81
2023-02-19T08:41:08.432Z,71.92
2023-02-19T08:43:35.991Z,73.15
2023-02-19T08:46:03.799Z,73.56
2023-02-19T08:48:30.852Z,72.68
2023-02-19T08:51:00.598Z,73.62
2023-02-19T08:53:27.606Z,72.79
2023-02-19T08:55:54.785Z,72.41
2023-02-19T08:58:22.270Z,73.50
2023-02-19T09:00:49.309Z,73.16
2023-02-19T09:03:16.420Z,72.61
2023-02-19T09:05:43.483Z,73.18
2023-02-19T09:08:11.059Z,73.22
2023-02-19T09:10:37.999Z,72.85
2023-02-19T09:13:05.496Z,72.68
2023-02-19T09:15:33.548Z,73.20
2023-02-19T09:18:00.613Z,73.99
2023-02-19T09:20:27.765Z,72.81
2023-02-19T09:22:58.717Z,73.66
2023-02-19T09:25:25.888Z,73.50
2023-02-19T09:27:56.660Z,74.35
2023-02-19T09:30:24.135Z,73.71
2023-02-19T09:32:51.574Z,73.65
2023-02-19T09:35:18.559Z,74.37
2023-02-19T09:37:45.906Z,72.66
2023-02-19T09:40:13.246Z,72.12
2023-02-19T09:42:43.198Z,71.90
2023-02-19T09:45:20.123Z,72.72
2023-02-19T09:47:47.679Z,72.54
2023-02-19T09:50:21.221Z,72.25
2023-02-19T09:52:54.789Z,71.69
2023-02-19T09:55:30.755Z,72.06
2023-02-19T09:58:00.217Z,72.46
2023-02-19T10:00:31.882Z,71.05
2023-02-19T10:03:15.145Z,72.53
2023-02-19T10:05:42.420Z,73.14
2023-02-19T10:08:15.537Z,72.32
2023-02-19T10:10:44.268Z,72.17
2023-02-19T10:13:23.545Z,71.58
2023-02-19T10:15:57.785Z,71.28
2023-02-19T10:18:31.180Z,70.48
2023-02-19T10:20:58.692Z,71.32
2023-02-19T10:23:26.611Z,70.12
2023-02-19T10:25:59.286Z,71.28
2023-02-19T10:28:30.256Z,70.11
2023-02-19T10:30:59.954Z,69.53
2023-02-19T10:33:27.313Z,71.33
2023-02-19T10:36:00.007Z,71.71
2023-02-19T10:38:35.011Z,70.19
2023-02-19T10:41:06.590Z,69.74
2023-02-19T10:43:39.945Z,71.12
2023-02-19T10:46:16.339Z,71.55
2023-02-19T10:48:50.799Z,70.36
2023-02-19T10:51:23.130Z,70.45
2023-02-19T10:54:02.766Z,68.90
2023-02-19T10:56:31.500Z,68.37
2023-02-19T10:59:27.980Z,66.98
2023-02-19T11:02:15.896Z,65.87
2023-02-19T11:05:01.628Z,65.39
2023-02-19T11:07:31.191Z,66.10
2023-02-19T11:09:59.585Z,64.52
2023-02-19T11:12:29.762Z,66.11
2023-02-19T11:14:57.270Z,67.21
2023-02-19T11:17:30.410Z,67.22
2023-02-19T11:20:00.490Z,66.68
2023-02-19T11:22:40.697Z,66.69
2023-02-19T11:25:18.571Z,65.58
2023-02-19T11:28:08.555Z,65.80
2023-02-19T11:30:40.385Z,66.91
2023-02-19T11:33:16.672Z,68.65
2023-02-19T11:35:45.005Z,68.26
2023-02-19T11:38:14.125Z,68.58
2023-02-19T11:41:03.456Z,68.33
2023-02-19T11:43:53.325Z,68.67
2023-02-19T11:46:39.069Z,67.77
2023-02-19T11:49:33.305Z,68.82
2023-02-19T11:52:36.976Z,67.74
2023-02-19T11:55:31.238Z,67.66
2023-02-19T11:58:09.883Z,68.30
2023-02-19T12:01:04.936Z,68.01
2023-02-19T12:03:37.530Z,67.86
2023-02-19T12:06:23.664Z,67.45
2023-02-19T12:09:03.295Z,68.42
2023-02-19T12:11:53.677Z,69.01
2023-02-19T12:14:45.072Z,68.92
2023-02-19T12:17:14.885Z,69.42
2023-02-19T12:20:03.128Z,70.15
2023-02-19T12:22:33.960Z,70.32
2023-02-19T12:25:33.347Z,70.59
2023-02-19T12:28:09.925Z,70.98
2023-02-19T12:31:13.963Z,71.13
2023-02-19T12:34:11.798Z,69.96
2023-02-19T12:36:48.552Z,70.72
2023-02-19T12:39:34.595Z,69.80
2023-02-19T12:42:20.007Z,70.79
2023-02-19T12:44:55.429Z,70.77
2023-02-19T12:47:28.570Z,71.32
2023-02-19T12:50:08.478Z,72.10
2023-02-19T12:52:41.169Z,71.63
2023-02-19T12:55:32.131Z,71.68
2023-02-19T12:58:04.212Z,72.60
2023-02-19T13:00:53.507Z,72.08
2023-02-19T13:03:32.415Z,72.32
2023-02-19T13:06:04.245Z,72.45
2023-02-19T13:09:03.469Z,73.18
2023-02-19T13:11:37.591Z,72.90
2023-02-19T13:14:15.547Z,73.58
2023-02-19T13:16:48.924Z,72.60
2023-02-19T13:19:15.909Z,74.20
2023-02-19T13:22:05.134Z,75.30
2023-02-19T13:24:39.768Z,74.93
2023-02-19T13:27:24.636Z,75.16
2023-02-19T13:30:20.433Z,75.02
2023-02-19T13:33:35.264Z,77.37
2023-02-19T13:36:21.615Z,76.88
2023-02-19T13:38:50.342Z,76.03
2023-02-19T13:41:20.962Z,78.09
2023-02-19T13:43:56.367Z,76.74
2023-02-19T13:46:24.690Z,78.06
2023-02-19T13:49:23.237Z,77.71
2023-02-19T13:51:55.179Z,77.24
2023-02-19T13:54:28.457Z,77.18
2023-02-19T13:57:22.998Z,77.49
2023-02-19T13:59:52.113Z,79.02
2023-02-19T14:02:21.759Z,79.42
2023-02-19T14:04:52.914Z,78.83
2023-02-19T14:07:41.792Z,78.30
2023-02-19T14:10:14.619Z,78.06
2023-02-19T14:12:41.638Z,78.41
2023-02-19T14:15:44.340Z,79.77
2023-02-19T14:18:46.044Z,78.66
2023-02-19T14:21:39.776Z,79.40
2023-02-19T14:24:12.522Z,78.72
2023-02-19T14:26:41.525Z,79.59
2023-02-19T14:29:10.748Z,80.13
2023-02-19T14:31:38.757Z,80.14
2023-02-19T14:34:19.619Z,80.18
2023-02-19T14:36:51.962Z,79.88
2023-02-19T14:39:24.456Z,81.94
2023-02-19T14:41:54.647Z,80.14
2023-02-19T14:44:25.894Z,80.71
2023-02-19T14:47:13.937Z,80.51
2023-02-19T14:49:48.924Z,80.49
2023-02-19T14:52:28.465Z,81.12
2023-02-19T14:55:29.969Z,80.66
2023-02-19T14:57:59.957Z,80.46
2023-02-19T15:00:43.106Z,79.75
2023-02-19T15:03:42.182Z,80.02
2023-02-19T15:06:17.951Z,80.06
2023-02-19T15:08:49.802Z,79.55
2023-02-19T15:11:21.745Z,80.12
2023-02-19T15:13:52.380Z,80.67
2023-02-19T15:16:24.665Z,80.53
2023-02-19T15:18:54.609Z,80.35
2023-02-19T15:21:30.871Z,80.06
2023-02-19T15:24:01.480Z,80.06
2023-02-19T15:26:35.576Z,79.82
2023-02-19T15:29:09.732Z,79.69
2023-02-19T15:31:36.954Z,80.21
2023-02-19T15:34:03.984Z,80.38
2023-02-19T15:36:34.045Z,79.83
2023-02-19T15:39:02.839Z,80.11
2023-02-19T15:41:34.976Z,80.15
2023-02-19T15:44:17.063Z,79.50
2023-02-19T15:46:45.580Z,79.97
2023-02-19T15:49:45.062Z,79.68
2023-02-19T15:52:21.387Z,80.03
2023-02-19T15:55:15.468Z,81.07
2023-02-19T15:57:51.172Z,79.58
2023-02-19T16:00:26.294Z,80.14
2023-02-19T16:02:53.385Z,78.77
2023-02-19T16:05:26.807Z,79.29
2023-02-19T16:08:19.523Z,79.73
2023-02-19T16:10:58.365Z,79.98
2023-02-19T16:13:28.006Z,79.76
2023-02-19T16:16:03.617Z,79.06
2023-02-19T16:18:31.051Z,79.23
2023-02-19T16:20:59.085Z,79.74
2023-02-19T16:23:27.444Z,79.22
2023-02-19T16:26:00.522Z,80.32
2023-02-19T16:28:29.839Z,80.19
2023-02-19T16:31:03.309Z,80.33
2023-02-19T16:33:36.450Z,80.08
2023-02-19T16:36:21.466Z,79.87
2023-02-19T16:39:04.782Z,79.60
2023-02-19T16:41:31.896Z,80.19
2023-02-19T16:43:59.002Z,80.66
2023-02-19T16:46:26.172Z,80.24
2023-02-19T16:48:54.300Z,80.06
2023-02-19T16:51:26.690Z,81.19
2023-02-19T16:53:54.093Z,79.79
2023-02-19T16:56:23.199Z,80.44
2023-02-19T16:58:50.581Z,79.96
2023-02-19T17:01:18.302Z,81.08
2023-02-19T17:03:47.707Z,81.33
2023-02-19T17:06:16.110Z,80.62
2023-02-19T17:08:44.595Z,81.03
2023-02-19T17:11:16.685Z,81.52
2023-02-19T17:13:46.310Z,81.96
2023-02-19T17:16:28.853Z,81.28
2023-02-19T17:18:56.268Z,82.62
2023-02-19T17:21:29.071Z,83.46
2023-02-19T17:23:57.144Z,84.19
2023-02-19T17:26:35.980Z,82.90
2023-02-19T17:29:06.000Z,82.37
2023-02-19T17:31:34.077Z,82.47
2023-02-19T17:34:01.240Z,82.73
2023-02-19T17:36:30.948Z,82.80
2023-02-19T17:38:59.679Z,82.61
2023-02-19T17:41:29.275Z,83.23
2023-02-19T17:43:56.479Z,83.11
2023-02-19T17:46:26.018Z,83.60
2023-02-19T17:48:54.049Z,83.01
2023-02-19T17:51:21.610Z,83.06
2023-02-19T17:53:48.550Z,84.07
2023-02-19T17:56:19.023Z,83.16
2023-02-19T17:58:46.196Z,83.47
2023-02-19T18:01:14.023Z,82.99
2023-02-19T18:03:41.438Z,83.21
2023-02-19T18:06:08.940Z,84.23
2023-02-19T18:08:36.088Z,82.49
2023-02-19T18:11:03.286Z,83.50
2023-02-19T18:13:30.427Z,83.42
2023-02-19T18:15:57.500Z,82.48
2023-02-19T18:18:24.513Z,82.66
2023-02-19T18:20:51.504Z,83.07
2023-02-19T18:23:20.568Z,82.42
2023-02-19T18:25:47.875Z,83.26
2023-02-19T18:28:15.271Z,84.25
2023-02-19T18:30:42.642Z,83.93
2023-02-19T18:33:13.517Z,82.52
2023-02-19T18:35:40.641Z,83.71
2023-02-19T18:38:07.754Z,83.52
2023-02-19T18:40:34.746Z,84.84
2023-02-19T18:43:01.847Z,83.50
2023-02-19T18:45:29.827Z,84.47
2023-02-19T18:47:56.857Z,84.31
2023-02-19T18:50:24.149Z,83.97
2023-02-19T18:52:51.777Z,83.89
2023-02-19T18:55:18.913Z,83.82
2023-02-19T18:57:47.076Z,83.27
2023-02-19T19:00:20.965Z,83.93
2023-02-19T19:02:50.173Z,83.28
2023-02-19T19:05:22.987Z,83.78
2023-02-19T19:07:55.465Z,83.12
2023-02-19T19:10:23.436Z,82.10
2023-02-19T19:12:50.588Z,82.04
2023-02-19T19:15:18.920Z,83.67
2023-02-19T19:17:47.914Z,82.34
2023-02-19T19:20:18.821Z,83.14
2023-02-19T19:22:46.046Z,82.36
2023-02-19T19:25:13.127Z,83.20
2023-02-19T19:27:40.127Z,82.88
2023-02-19T19:30:08.159Z,83.20
2023-02-19T19:32:35.346Z,83.62
2023-02-19T19:35:02.367Z,82.21
2023-02-19T19:37:30.602Z,82.10
2023-02-19T19:39:57.581Z,83.58
2023-02-19T19:42:24.898Z,82.99
2023-02-19T19:44:52.134Z,83.89
2023-02-19T19:47:19.328Z,83.24
2023-02-19T19:49:47.450Z,83.52
2023-02-19T19:52:14.840Z,82.52
2023-02-19T19:54:43.341Z,83.40
2023-02-19T19:57:10.862Z,83.37
2023-02-19T19:59:39.471Z,83.95
2023-02-19T20:02:07.867Z,83.33
2023-02-19T20:04:34.990Z,83.92
2023-02-19T20:07:02.428Z,83.61
2023-02-19T20:09:29.538Z,83.16
2023-02-19T20:11:56.902Z,83.57
2023-02-19T20:14:25.350Z,83.44
2023-02-19T20:16:53.375Z,83.32
2023-02-19T20:19:20.778Z,83.01
2023-02-19T20:21:53.146Z,83.55
2023-02-19T20:24:26.196Z,83.12
2023-02-19T20:26:58.530Z,83.13
2023-02-19T20:29:34.455Z,82.22
2023-02-19T20:32:03.834Z,83.98
2023-02-19T20:34:31.526Z,83.71
2023-02-19T20:36:58.980Z,83.65
2023-02-19T20:39:29.059Z,83.76
2023-02-19T20:41:57.712Z,83.32
2023-02-19T20:44:25.797Z,83.46
2023-02-19T20:46:53.535Z,83.42
2023-02-19T20:49:23.789Z,82.65
2023-02-19T20:51:54.983Z,83.61
2023-02-19T20:54:25.072Z,83.73
2023-02-19T20:56:54.925Z,83.52
2023-02-19T20:59:24.911Z,84.16
2023-02-19T21:01:51.982Z,83.13
2023-02-19T21:04:19.140Z,83.03
2023-02-19T21:06:46.362Z,83.46
2023-02-19T21:09:13.391Z,83.03
2023-02-19T21:11:40.431Z,83.09
2023-02-19T21:14:07.401Z,83.33
2023-02-19T21:16:34.727Z,82.55
2023-02-19T21:19:01.740Z,83.99
2023-02-19T21:21:31.287Z,83.95
2023-02-19T21:23:59.573Z,82.75
2023-02-19T21:26:36.840Z,83.01
2023-02-19T21:29:08.615Z,82.60
2023-02-19T21:31:49.971Z,83.15
2023-02-19T21:34:19.843Z,84.11
2023-02-19T21:36:47.421Z,83.86
2023-02-19T21:39:18.134Z,83.34
2023-02-19T21:41:45.345Z,82.86
2023-02-19T21:44:12.690Z,83.06
2023-02-19T21:46:40.813Z,83.28
2023-02-19T21:49:08.004Z,83.40
2023-02-19T21:51:37.272Z,83.83
2023-02-19T21:54:05.918Z,83.18
2023-02-19T21:56:36.350Z,83.07
2023-02-19T21:59:04.112Z,84.26
2023-02-19T22:01:34.178Z,83.92
2023-02-19T22:04:01.432Z,83.95
2023-02-19T22:06:30.855Z,83.92
2023-02-19T22:08:58.674Z,83.56
2023-02-19T22:11:25.849Z,83.21
2023-02-19T22:13:53.222Z,83.97
2023-02-19T22:16:20.513Z,84.33
2023-02-19T22:18:52.239Z,83.08
2023-02-19T22:21:20.461Z,83.61
2023-02-19T22:23:48.564Z,83.54
2023-02-19T22:26:23.727Z,84.07
2023-02-19T22:28:51.844Z,83.92
2023-02-19T22:31:21.198Z,83.91
2023-02-19T22:33:48.559Z,83.14
2023-02-19T22:36:20.691Z,83.93
2023-02-19T22:38:48.385Z,83.59
2023-02-19T22:41:17.181Z,83.35
2023-02-19T22:43:44.894Z,84.23
2023-02-19T22:46:18.297Z,83.22
2023-02-19T22:48:45.668Z,83.65
2023-02-19T22:51:15.130Z,83.31
2023-02-19T22:53:50.513Z,83.14
2023-02-19T22:56:18.900Z,84.17
2023-02-19T22:58:46.054Z,83.67
2023-02-19T23:01:14.585Z,84.09
2023-02-19T23:03:53.110Z,83.58
2023-02-19T23:06:28.921Z,83.36
2023-02-19T23:08:58.298Z,82.99
2023-02-19T23:11:33.198Z,83.04
2023-02-19T23:14:00.272Z,82.33
2023-02-19T23:16:27.293Z,83.02
2023-02-19T23:18:54.685Z,83.25
2023-02-19T23:21:22.783Z,84.21
2023-02-19T23:23:49.934Z,83.68
2023-02-19T23:26:17.272Z,83.62
2023-02-19T23:28:45.168Z,84.57
2023-02-19T23:31:13.206Z,83.98
2023-02-19T23:33:40.641Z,84.57
2023-02-19T23:36:08.733Z,84.23
2023-02-19T23:38:36.162Z,84.33
2023-02-19T23:41:04.171Z,83.80
2023-02-19T23:43:31.126Z,83.44
2023-02-19T23:45:58.212Z,83.83
2023-02-19T23:48:25.104Z,83.62
2023-02-19T23:50:52.001Z,83.20
2023-02-19T23:53:19.060Z,84.16
2023-02-19T23:55:46.268Z,83.64
2023-02-19T23:58:13.225Z,82.97
